sensor_id;sensor_type;location;lat;lon;timestamp;P1;durP1;ratioP1;P2;durP2;ratioP2
30519;SDS011;17300;50.374;8.006;2023-12-04T00:00:35;9.63;;;8.27;;
30519;SDS011;17300;50.374;8.006;2023-12-04T00:03:04;8.73;;;7.83;;
30519;SDS011;17300;50.374;8.006;2023-12-04T00:05:32;9.37;;;7.83;;
30519;SDS011;17300;50.374;8.006;2023-12-04T00:07:59;9.23;;;8.23;;
30519;SDS011;17300;50.374;8.006;2023-12-04T00:10:25;10.87;;;9.20;;
30519;SDS011;17300;50.374;8.006;2023-12-04T00:12:52;9.60;;;8.20;;
30519;SDS011;17300;50.374;8.006;2023-12-04T00:15:19;9.83;;;8.63;;
30519;SDS011;17300;50.374;8.006;2023-12-04T00:17:46;9.50;;;8.50;;
30519;SDS011;17300;50.374;8.006;2023-12-04T00:20:15;9.70;;;8.47;;
30519;SDS011;17300;50.374;8.006;2023-12-04T00:22:43;11.77;;;9.60;;
30519;SDS011;17300;50.374;8.006;2023-12-04T00:25:11;10.83;;;9.30;;
30519;SDS011;17300;50.374;8.006;2023-12-04T00:27:38;10.93;;;9.40;;
30519;SDS011;17300;50.374;8.006;2023-12-04T00:30:24;10.17;;;9.13;;
30519;SDS011;17300;50.374;8.006;2023-12-04T00:32:51;10.50;;;9.20;;
30519;SDS011;17300;50.374;8.006;2023-12-04T00:35:18;9.57;;;8.57;;
30519;SDS011;17300;50.374;8.006;2023-12-04T00:37:46;10.27;;;8.80;;
30519;SDS011;17300;50.374;8.006;2023-12-04T00:40:12;10.13;;;8.93;;
30519;SDS011;17300;50.374;8.006;2023-12-04T00:42:39;9.20;;;8.20;;
30519;SDS011;17300;50.374;8.006;2023-12-04T00:45:06;9.20;;;8.10;;
30519;SDS011;17300;50.374;8.006;2023-12-04T00:47:36;9.93;;;8.53;;
30519;SDS011;17300;50.374;8.006;2023-12-04T00:50:03;9.53;;;8.47;;
30519;SDS011;17300;50.374;8.006;2023-12-04T00:52:30;10.23;;;9.23;;
30519;SDS011;17300;50.374;8.006;2023-12-04T00:54:58;9.50;;;8.50;;
30519;SDS011;17300;50.374;8.006;2023-12-04T00:57:25;9.73;;;8.50;;
30519;SDS011;17300;50.374;8.006;2023-12-04T00:59:53;9.37;;;8.17;;
30519;SDS011;17300;50.374;8.006;2023-12-04T01:02:19;8.43;;;7.47;;
30519;SDS011;17300;50.374;8.006;2023-12-04T01:04:46;9.47;;;7.87;;
30519;SDS011;17300;50.374;8.006;2023-12-04T01:07:12;9.73;;;8.37;;
30519;SDS011;17300;50.374;8.006;2023-12-04T01:09:39;9.33;;;7.90;;
30519;SDS011;17300;50.374;8.006;2023-12-04T01:12:07;9.23;;;7.70;;
30519;SDS011;17300;50.374;8.006;2023-12-04T01:14:35;9.03;;;7.63;;
30519;SDS011;17300;50.374;8.006;2023-12-04T01:17:03;9.97;;;8.50;;
30519;SDS011;17300;50.374;8.006;2023-12-04T01:19:31;10.07;;;8.47;;
30519;SDS011;17300;50.374;8.006;2023-12-04T01:21:58;9.40;;;7.93;;
30519;SDS011;17300;50.374;8.006;2023-12-04T01:24:24;9.47;;;7.87;;
30519;SDS011;17300;50.374;8.006;2023-12-04T01:26:51;9.67;;;8.17;;
30519;SDS011;17300;50.374;8.006;2023-12-04T01:29:19;9.10;;;7.83;;
30519;SDS011;17300;50.374;8.006;2023-12-04T01:31:46;9.27;;;8.23;;
30519;SDS011;17300;50.374;8.006;2023-12-04T01:34:12;9.37;;;7.87;;
30519;SDS011;17300;50.374;8.006;2023-12-04T01:36:39;8.70;;;7.80;;
30519;SDS011;17300;50.374;8.006;2023-12-04T01:39:06;9.50;;;8.20;;
30519;SDS011;17300;50.374;8.006;2023-12-04T01:41:33;8.57;;;7.67;;
30519;SDS011;17300;50.374;8.006;2023-12-04T01:44:00;9.43;;;8.23;;
30519;SDS011;17300;50.374;8.006;2023-12-04T01:46:28;9.13;;;8.03;;
30519;SDS011;17300;50.374;8.006;2023-12-04T01:48:55;8.60;;;7.70;;
30519;SDS011;17300;50.374;8.006;2023-12-04T01:51:22;7.50;;;6.80;;
30519;SDS011;17300;50.374;8.006;2023-12-04T01:53:49;8.17;;;7.37;;
30519;SDS011;17300;50.374;8.006;2023-12-04T01:56:16;8.07;;;7.27;;
30519;SDS011;17300;50.374;8.006;2023-12-04T01:58:44;7.90;;;7.10;;
30519;SDS011;17300;50.374;8.006;2023-12-04T02:01:11;8.13;;;7.27;;
30519;SDS011;17300;50.374;8.006;2023-12-04T02:03:39;8.93;;;7.50;;
30519;SDS011;17300;50.374;8.006;2023-12-04T02:06:07;9.87;;;8.10;;
30519;SDS011;17300;50.374;8.006;2023-12-04T02:08:35;9.67;;;7.73;;
30519;SDS011;17300;50.374;8.006;2023-12-04T02:11:02;8.10;;;7.30;;
30519;SDS011;17300;50.374;8.006;2023-12-04T02:13:28;8.30;;;7.13;;
30519;SDS011;17300;50.374;8.006;2023-12-04T02:15:55;8.97;;;7.63;;
30519;SDS011;17300;50.374;8.006;2023-12-04T02:18:27;8.13;;;7.33;;
30519;SDS011;17300;50.374;8.006;2023-12-04T02:20:56;8.90;;;7.67;;
30519;SDS011;17300;50.374;8.006;2023-12-04T02:23:23;9.70;;;7.93;;
30519;SDS011;17300;50.374;8.006;2023-12-04T02:25:51;8.60;;;7.50;;
30519;SDS011;17300;50.374;8.006;2023-12-04T02:28:22;9.33;;;7.83;;
30519;SDS011;17300;50.374;8.006;2023-12-04T02:30:49;8.43;;;7.53;;
30519;SDS011;17300;50.374;8.006;2023-12-04T02:33:16;8.60;;;7.40;;
30519;SDS011;17300;50.374;8.006;2023-12-04T02:35:46;8.53;;;7.43;;
30519;SDS011;17300;50.374;8.006;2023-12-04T02:38:14;8.53;;;7.63;;
30519;SDS011;17300;50.374;8.006;2023-12-04T02:40:40;8.60;;;7.70;;
30519;SDS011;17300;50.374;8.006;2023-12-04T02:43:09;8.50;;;7.23;;
30519;SDS011;17300;50.374;8.006;2023-12-04T02:45:35;8.73;;;7.40;;
30519;SDS011;17300;50.374;8.006;2023-12-04T02:48:02;8.57;;;7.57;;
30519;SDS011;17300;50.374;8.006;2023-12-04T02:50:29;8.77;;;7.17;;
30519;SDS011;17300;50.374;8.006;2023-12-04T02:52:56;8.73;;;7.83;;
30519;SDS011;17300;50.374;8.006;2023-12-04T02:55:26;8.67;;;7.77;;
30519;SDS011;17300;50.374;8.006;2023-12-04T02:57:52;8.77;;;7.43;;
30519;SDS011;17300;50.374;8.006;2023-12-04T03:00:20;8.93;;;7.87;;
30519;SDS011;17300;50.374;8.006;2023-12-04T03:02:47;9.30;;;7.53;;
30519;SDS011;17300;50.374;8.006;2023-12-04T03:05:14;9.27;;;8.20;;
30519;SDS011;17300;50.374;8.006;2023-12-04T03:07:40;9.57;;;7.70;;
30519;SDS011;17300;50.374;8.006;2023-12-04T03:10:07;9.40;;;7.80;;
30519;SDS011;17300;50.374;8.006;2023-12-04T03:12:34;8.70;;;7.73;;
30519;SDS011;17300;50.374;8.006;2023-12-04T03:15:01;10.27;;;8.73;;
30519;SDS011;17300;50.374;8.006;2023-12-04T03:17:29;9.97;;;8.63;;
30519;SDS011;17300;50.374;8.006;2023-12-04T03:19:55;10.20;;;8.60;;
30519;SDS011;17300;50.374;8.006;2023-12-04T03:22:22;9.70;;;8.47;;
30519;SDS011;17300;50.374;8.006;2023-12-04T03:24:49;10.23;;;8.80;;
30519;SDS011;17300;50.374;8.006;2023-12-04T03:27:15;9.37;;;8.33;;
30519;SDS011;17300;50.374;8.006;2023-12-04T03:29:42;9.33;;;7.90;;
30519;SDS011;17300;50.374;8.006;2023-12-04T03:32:09;10.50;;;9.40;;
30519;SDS011;17300;50.374;8.006;2023-12-04T03:34:36;8.90;;;7.93;;
30519;SDS011;17300;50.374;8.006;2023-12-04T03:37:03;9.57;;;8.57;;
30519;SDS011;17300;50.374;8.006;2023-12-04T03:39:30;8.77;;;7.87;;
30519;SDS011;17300;50.374;8.006;2023-12-04T03:41:56;9.10;;;7.90;;
30519;SDS011;17300;50.374;8.006;2023-12-04T03:44:23;8.47;;;7.47;;
30519;SDS011;17300;50.374;8.006;2023-12-04T03:46:51;10.03;;;8.33;;
30519;SDS011;17300;50.374;8.006;2023-12-04T03:49:17;9.00;;;8.03;;
30519;SDS011;17300;50.374;8.006;2023-12-04T03:51:45;9.57;;;8.57;;
30519;SDS011;17300;50.374;8.006;2023-12-04T03:54:12;9.30;;;8.27;;
30519;SDS011;17300;50.374;8.006;2023-12-04T03:56:39;9.20;;;7.93;;
30519;SDS011;17300;50.374;8.006;2023-12-04T03:59:06;10.53;;;9.00;;
30519;SDS011;17300;50.374;8.006;2023-12-04T04:01:35;9.10;;;8.10;;
30519;SDS011;17300;50.374;8.006;2023-12-04T04:04:01;9.80;;;8.60;;
30519;SDS011;17300;50.374;8.006;2023-12-04T04:06:28;10.00;;;8.70;;
30519;SDS011;17300;50.374;8.006;2023-12-04T04:08:56;10.30;;;8.43;;
30519;SDS011;17300;50.374;8.006;2023-12-04T04:11:23;10.67;;;9.03;;
30519;SDS011;17300;50.374;8.006;2023-12-04T04:13:50;10.03;;;8.47;;
30519;SDS011;17300;50.374;8.006;2023-12-04T04:16:16;10.57;;;9.17;;
30519;SDS011;17300;50.374;8.006;2023-12-04T04:18:43;9.40;;;8.40;;
30519;SDS011;17300;50.374;8.006;2023-12-04T04:21:10;10.37;;;9.37;;
30519;SDS011;17300;50.374;8.006;2023-12-04T04:23:36;9.77;;;8.43;;
30519;SDS011;17300;50.374;8.006;2023-12-04T04:26:04;10.23;;;8.37;;
30519;SDS011;17300;50.374;8.006;2023-12-04T04:28:31;9.90;;;8.73;;
30519;SDS011;17300;50.374;8.006;2023-12-04T04:30:58;10.03;;;8.80;;
30519;SDS011;17300;50.374;8.006;2023-12-04T04:33:25;10.27;;;8.77;;
30519;SDS011;17300;50.374;8.006;2023-12-04T04:35:51;9.60;;;7.97;;
30519;SDS011;17300;50.374;8.006;2023-12-04T04:38:18;9.67;;;8.37;;
30519;SDS011;17300;50.374;8.006;2023-12-04T04:40:45;9.97;;;8.43;;
30519;SDS011;17300;50.374;8.006;2023-12-04T04:43:13;10.90;;;9.17;;
30519;SDS011;17300;50.374;8.006;2023-12-04T04:45:39;11.40;;;9.33;;
30519;SDS011;17300;50.374;8.006;2023-12-04T04:48:06;9.47;;;8.23;;
30519;SDS011;17300;50.374;8.006;2023-12-04T04:50:33;9.93;;;8.73;;
30519;SDS011;17300;50.374;8.006;2023-12-04T04:52:59;10.83;;;8.60;;
30519;SDS011;17300;50.374;8.006;2023-12-04T04:55:26;10.33;;;8.77;;
30519;SDS011;17300;50.374;8.006;2023-12-04T04:57:53;9.60;;;8.33;;
30519;SDS011;17300;50.374;8.006;2023-12-04T05:00:21;11.33;;;9.40;;
30519;SDS011;17300;50.374;8.006;2023-12-04T05:02:47;10.93;;;9.20;;
30519;SDS011;17300;50.374;8.006;2023-12-04T05:05:14;10.00;;;8.97;;
30519;SDS011;17300;50.374;8.006;2023-12-04T05:07:41;9.67;;;8.67;;
30519;SDS011;17300;50.374;8.006;2023-12-04T05:10:08;9.53;;;8.53;;
30519;SDS011;17300;50.374;8.006;2023-12-04T05:12:35;10.63;;;8.70;;
30519;SDS011;17300;50.374;8.006;2023-12-04T05:15:01;10.33;;;8.57;;
30519;SDS011;17300;50.374;8.006;2023-12-04T05:17:30;10.17;;;8.90;;
30519;SDS011;17300;50.374;8.006;2023-12-04T05:19:56;10.03;;;8.43;;
30519;SDS011;17300;50.374;8.006;2023-12-04T05:22:23;9.37;;;8.30;;
30519;SDS011;17300;50.374;8.006;2023-12-04T05:24:50;10.40;;;8.87;;
30519;SDS011;17300;50.374;8.006;2023-12-04T05:27:17;9.60;;;8.47;;
30519;SDS011;17300;50.374;8.006;2023-12-04T05:29:43;9.53;;;8.53;;
30519;SDS011;17300;50.374;8.006;2023-12-04T05:32:11;9.77;;;8.67;;
30519;SDS011;17300;50.374;8.006;2023-12-04T05:34:40;9.63;;;8.60;;
30519;SDS011;17300;50.374;8.006;2023-12-04T05:37:06;10.63;;;8.80;;
30519;SDS011;17300;50.374;8.006;2023-12-04T05:39:33;10.20;;;8.30;;
30519;SDS011;17300;50.374;8.006;2023-12-04T05:42:00;10.43;;;8.77;;
30519;SDS011;17300;50.374;8.006;2023-12-04T05:44:26;9.67;;;8.67;;
30519;SDS011;17300;50.374;8.006;2023-12-04T05:46:53;8.57;;;7.63;;
30519;SDS011;17300;50.374;8.006;2023-12-04T05:49:20;9.53;;;8.00;;
30519;SDS011;17300;50.374;8.006;2023-12-04T05:51:48;9.43;;;7.97;;
30519;SDS011;17300;50.374;8.006;2023-12-04T05:54:14;9.73;;;8.23;;
30519;SDS011;17300;50.374;8.006;2023-12-04T05:56:41;10.07;;;8.57;;
30519;SDS011;17300;50.374;8.006;2023-12-04T05:59:08;9.30;;;8.23;;
30519;SDS011;17300;50.374;8.006;2023-12-04T06:01:36;9.70;;;8.20;;
30519;SDS011;17300;50.374;8.006;2023-12-04T06:04:03;10.03;;;8.47;;
30519;SDS011;17300;50.374;8.006;2023-12-04T06:06:29;9.83;;;8.63;;
30519;SDS011;17300;50.374;8.006;2023-12-04T06:08:57;9.63;;;8.13;;
30519;SDS011;17300;50.374;8.006;2023-12-04T06:11:24;10.90;;;8.87;;
30519;SDS011;17300;50.374;8.006;2023-12-04T06:13:51;10.77;;;8.53;;
30519;SDS011;17300;50.374;8.006;2023-12-04T06:16:17;9.40;;;8.13;;
30519;SDS011;17300;50.374;8.006;2023-12-04T06:18:44;8.77;;;7.87;;
30519;SDS011;17300;50.374;8.006;2023-12-04T06:21:11;9.47;;;8.03;;
30519;SDS011;17300;50.374;8.006;2023-12-04T06:23:37;9.47;;;8.20;;
30519;SDS011;17300;50.374;8.006;2023-12-04T06:26:06;9.13;;;7.97;;
30519;SDS011;17300;50.374;8.006;2023-12-04T06:28:34;9.87;;;8.53;;
30519;SDS011;17300;50.374;8.006;2023-12-04T06:31:01;8.80;;;7.90;;
30519;SDS011;17300;50.374;8.006;2023-12-04T06:33:29;10.97;;;8.50;;
30519;SDS011;17300;50.374;8.006;2023-12-04T06:35:56;9.63;;;8.17;;
30519;SDS011;17300;50.374;8.006;2023-12-04T06:38:23;9.77;;;8.77;;
30519;SDS011;17300;50.374;8.006;2023-12-04T06:40:51;9.97;;;8.53;;
30519;SDS011;17300;50.374;8.006;2023-12-04T06:43:20;10.03;;;8.63;;
30519;SDS011;17300;50.374;8.006;2023-12-04T06:45:47;9.90;;;8.90;;
30519;SDS011;17300;50.374;8.006;2023-12-04T06:48:14;8.80;;;7.90;;
30519;SDS011;17300;50.374;8.006;2023-12-04T06:50:42;9.47;;;8.23;;
30519;SDS011;17300;50.374;8.006;2023-12-04T06:53:09;10.43;;;8.60;;
30519;SDS011;17300;50.374;8.006;2023-12-04T06:55:36;10.70;;;9.13;;
30519;SDS011;17300;50.374;8.006;2023-12-04T06:58:02;8.10;;;7.30;;
30519;SDS011;17300;50.374;8.006;2023-12-04T07:00:31;9.10;;;8.20;;
30519;SDS011;17300;50.374;8.006;2023-12-04T07:02:57;10.13;;;7.77;;
30519;SDS011;17300;50.374;8.006;2023-12-04T07:05:24;10.37;;;8.73;;
30519;SDS011;17300;50.374;8.006;2023-12-04T07:07:51;9.33;;;8.30;;
30519;SDS011;17300;50.374;8.006;2023-12-04T07:10:17;9.27;;;7.90;;
30519;SDS011;17300;50.374;8.006;2023-12-04T07:12:44;9.37;;;7.97;;
30519;SDS011;17300;50.374;8.006;2023-12-04T07:15:11;9.50;;;8.40;;
30519;SDS011;17300;50.374;8.006;2023-12-04T07:17:39;10.13;;;9.03;;
30519;SDS011;17300;50.374;8.006;2023-12-04T07:20:06;9.70;;;8.50;;
30519;SDS011;17300;50.374;8.006;2023-12-04T07:22:33;10.43;;;8.33;;
30519;SDS011;17300;50.374;8.006;2023-12-04T07:25:00;10.47;;;8.07;;
30519;SDS011;17300;50.374;8.006;2023-12-04T07:27:27;9.07;;;8.17;;
30519;SDS011;17300;50.374;8.006;2023-12-04T07:29:54;8.60;;;7.67;;
30519;SDS011;17300;50.374;8.006;2023-12-04T07:32:20;8.63;;;7.73;;
30519;SDS011;17300;50.374;8.006;2023-12-04T07:34:48;10.10;;;8.10;;
30519;SDS011;17300;50.374;8.006;2023-12-04T07:37:15;10.30;;;8.50;;
30519;SDS011;17300;50.374;8.006;2023-12-04T07:39:43;9.87;;;8.73;;
30519;SDS011;17300;50.374;8.006;2023-12-04T07:42:11;11.00;;;8.80;;
30519;SDS011;17300;50.374;8.006;2023-12-04T07:44:37;9.90;;;8.27;;
30519;SDS011;17300;50.374;8.006;2023-12-04T07:47:04;10.13;;;8.87;;
30519;SDS011;17300;50.374;8.006;2023-12-04T07:49:31;10.00;;;8.53;;
30519;SDS011;17300;50.374;8.006;2023-12-04T07:51:59;9.60;;;8.57;;
30519;SDS011;17300;50.374;8.006;2023-12-04T07:54:25;10.27;;;8.43;;
30519;SDS011;17300;50.374;8.006;2023-12-04T07:56:52;8.70;;;7.80;;
30519;SDS011;17300;50.374;8.006;2023-12-04T07:59:19;10.27;;;8.73;;
30519;SDS011;17300;50.374;8.006;2023-12-04T08:01:47;9.47;;;7.80;;
30519;SDS011;17300;50.374;8.006;2023-12-04T08:08:26;10.50;;;8.07;;
30519;SDS011;17300;50.374;8.006;2023-12-04T08:10:53;10.13;;;8.60;;
30519;SDS011;17300;50.374;8.006;2023-12-04T08:13:20;10.30;;;8.20;;
30519;SDS011;17300;50.374;8.006;2023-12-04T08:15:46;9.80;;;8.50;;
30519;SDS011;17300;50.374;8.006;2023-12-04T08:18:13;9.90;;;8.00;;
30519;SDS011;17300;50.374;8.006;2023-12-04T08:20:40;9.53;;;8.03;;
30519;SDS011;17300;50.374;8.006;2023-12-04T08:23:19;9.57;;;7.97;;
30519;SDS011;17300;50.374;8.006;2023-12-04T08:25:48;9.37;;;8.00;;
30519;SDS011;17300;50.374;8.006;2023-12-04T08:28:17;9.67;;;8.20;;
30519;SDS011;17300;50.374;8.006;2023-12-04T08:30:44;10.73;;;8.00;;
30519;SDS011;17300;50.374;8.006;2023-12-04T08:33:10;8.53;;;7.63;;
30519;SDS011;17300;50.374;8.006;2023-12-04T08:35:37;9.20;;;8.20;;
30519;SDS011;17300;50.374;8.006;2023-12-04T08:38:04;9.63;;;8.47;;
30519;SDS011;17300;50.374;8.006;2023-12-04T08:40:31;8.83;;;7.93;;
30519;SDS011;17300;50.374;8.006;2023-12-04T08:42:59;8.40;;;7.50;;
30519;SDS011;17300;50.374;8.006;2023-12-04T08:45:26;9.03;;;7.77;;
30519;SDS011;17300;50.374;8.006;2023-12-04T08:48:02;8.93;;;7.77;;
30519;SDS011;17300;50.374;8.006;2023-12-04T08:50:43;9.47;;;7.73;;
30519;SDS011;17300;50.374;8.006;2023-12-04T08:53:10;9.10;;;7.83;;
30519;SDS011;17300;50.374;8.006;2023-12-04T08:55:37;8.83;;;7.90;;
30519;SDS011;17300;50.374;8.006;2023-12-04T08:58:05;9.40;;;7.80;;
30519;SDS011;17300;50.374;8.006;2023-12-04T09:00:32;8.63;;;7.73;;
30519;SDS011;17300;50.374;8.006;2023-12-04T09:03:01;9.33;;;8.03;;
30519;SDS011;17300;50.374;8.006;2023-12-04T09:05:28;10.43;;;8.20;;
30519;SDS011;17300;50.374;8.006;2023-12-04T09:07:54;8.70;;;7.80;;
30519;SDS011;17300;50.374;8.006;2023-12-04T09:10:21;9.53;;;8.40;;
30519;SDS011;17300;50.374;8.006;2023-12-04T09:12:48;10.57;;;8.23;;
30519;SDS011;17300;50.374;8.006;2023-12-04T09:15:16;9.93;;;8.50;;
30519;SDS011;17300;50.374;8.006;2023-12-04T09:17:43;9.80;;;8.20;;
30519;SDS011;17300;50.374;8.006;2023-12-04T09:20:09;8.90;;;8.00;;
30519;SDS011;17300;50.374;8.006;2023-12-04T09:22:41;8.47;;;7.57;;
30519;SDS011;17300;50.374;8.006;2023-12-04T09:25:09;8.80;;;7.53;;
30519;SDS011;17300;50.374;8.006;2023-12-04T09:27:36;8.60;;;7.70;;
30519;SDS011;17300;50.374;8.006;2023-12-04T09:30:03;10.27;;;7.73;;
30519;SDS011;17300;50.374;8.006;2023-12-04T09:32:32;8.47;;;7.57;;
30519;SDS011;17300;50.374;8.006;2023-12-04T09:34:58;8.30;;;7.40;;
30519;SDS011;17300;50.374;8.006;2023-12-04T09:37:25;9.70;;;7.70;;
30519;SDS011;17300;50.374;8.006;2023-12-04T09:39:52;8.43;;;7.53;;
30519;SDS011;17300;50.374;8.006;2023-12-04T09:42:18;9.00;;;7.80;;
30519;SDS011;17300;50.374;8.006;2023-12-04T09:44:45;9.17;;;7.53;;
30519;SDS011;17300;50.374;8.006;2023-12-04T09:47:14;9.33;;;7.83;;
30519;SDS011;17300;50.374;8.006;2023-12-04T09:49:43;8.17;;;6.60;;
30519;SDS011;17300;50.374;8.006;2023-12-04T09:52:11;8.07;;;7.03;;
30519;SDS011;17300;50.374;8.006;2023-12-04T09:54:38;7.40;;;6.60;;
30519;SDS011;17300;50.374;8.006;2023-12-04T09:57:06;7.47;;;6.60;;
30519;SDS011;17300;50.374;8.006;2023-12-04T09:59:33;8.40;;;7.10;;
30519;SDS011;17300;50.374;8.006;2023-12-04T10:02:01;7.37;;;6.63;;
30519;SDS011;17300;50.374;8.006;2023-12-04T10:04:34;8.47;;;6.97;;
30519;SDS011;17300;50.374;8.006;2023-12-04T10:07:09;8.97;;;7.10;;
30519;SDS011;17300;50.374;8.006;2023-12-04T10:09:36;7.40;;;6.60;;
30519;SDS011;17300;50.374;8.006;2023-12-04T10:12:03;7.80;;;6.80;;
30519;SDS011;17300;50.374;8.006;2023-12-04T10:14:31;7.20;;;6.50;;
30519;SDS011;17300;50.374;8.006;2023-12-04T10:16:58;6.93;;;6.23;;
30519;SDS011;17300;50.374;8.006;2023-12-04T10:19:26;7.80;;;7.00;;
30519;SDS011;17300;50.374;8.006;2023-12-04T10:21:55;8.07;;;6.70;;
30519;SDS011;17300;50.374;8.006;2023-12-04T10:24:28;7.87;;;7.03;;
30519;SDS011;17300;50.374;8.006;2023-12-04T10:26:58;8.90;;;7.10;;
30519;SDS011;17300;50.374;8.006;2023-12-04T10:29:26;8.20;;;6.83;;
30519;SDS011;17300;50.374;8.006;2023-12-04T10:31:55;8.87;;;6.60;;
30519;SDS011;17300;50.374;8.006;2023-12-04T10:34:42;9.47;;;6.80;;
30519;SDS011;17300;50.374;8.006;2023-12-04T10:37:29;7.63;;;6.20;;
30519;SDS011;17300;50.374;8.006;2023-12-04T10:40:01;7.00;;;6.23;;
30519;SDS011;17300;50.374;8.006;2023-12-04T10:42:33;7.83;;;6.33;;
30519;SDS011;17300;50.374;8.006;2023-12-04T10:45:02;6.83;;;6.13;;
30519;SDS011;17300;50.374;8.006;2023-12-04T10:47:49;8.27;;;6.67;;
30519;SDS011;17300;50.374;8.006;2023-12-04T10:50:19;7.43;;;6.10;;
30519;SDS011;17300;50.374;8.006;2023-12-04T10:52:48;6.53;;;5.77;;
30519;SDS011;17300;50.374;8.006;2023-12-04T10:55:19;8.43;;;6.80;;
30519;SDS011;17300;50.374;8.006;2023-12-04T10:57:45;7.23;;;6.53;;
30519;SDS011;17300;50.374;8.006;2023-12-04T11:00:15;7.00;;;6.27;;
30519;SDS011;17300;50.374;8.006;2023-12-04T11:02:43;7.67;;;6.73;;
30519;SDS011;17300;50.374;8.006;2023-12-04T11:05:14;7.27;;;6.53;;
30519;SDS011;17300;50.374;8.006;2023-12-04T11:08:13;6.47;;;5.43;;
30519;SDS011;17300;50.374;8.006;2023-12-04T11:10:50;6.47;;;5.50;;
30519;SDS011;17300;50.374;8.006;2023-12-04T11:13:23;6.77;;;6.07;;
30519;SDS011;17300;50.374;8.006;2023-12-04T11:15:55;6.97;;;6.00;;
30519;SDS011;17300;50.374;8.006;2023-12-04T11:18:26;7.27;;;6.13;;
30519;SDS011;17300;50.374;8.006;2023-12-04T11:20:59;6.50;;;5.70;;
30519;SDS011;17300;50.374;8.006;2023-12-04T11:23:41;7.27;;;6.00;;
30519;SDS011;17300;50.374;8.006;2023-12-04T11:26:11;6.57;;;5.60;;
30519;SDS011;17300;50.374;8.006;2023-12-04T11:28:40;7.27;;;5.70;;
30519;SDS011;17300;50.374;8.006;2023-12-04T11:31:07;6.60;;;5.80;;
30519;SDS011;17300;50.374;8.006;2023-12-04T11:33:34;6.70;;;6.00;;
30519;SDS011;17300;50.374;8.006;2023-12-04T11:36:05;6.17;;;5.57;;
30519;SDS011;17300;50.374;8.006;2023-12-04T11:38:34;6.43;;;5.47;;
30519;SDS011;17300;50.374;8.006;2023-12-04T11:41:13;5.70;;;5.10;;
30519;SDS011;17300;50.374;8.006;2023-12-04T11:43:42;5.40;;;4.90;;
30519;SDS011;17300;50.374;8.006;2023-12-04T11:46:09;5.97;;;5.30;;
30519;SDS011;17300;50.374;8.006;2023-12-04T11:48:36;5.73;;;4.87;;
30519;SDS011;17300;50.374;8.006;2023-12-04T11:51:05;6.17;;;5.40;;
30519;SDS011;17300;50.374;8.006;2023-12-04T11:53:36;5.10;;;4.60;;
30519;SDS011;17300;50.374;8.006;2023-12-04T11:56:11;5.97;;;5.37;;
30519;SDS011;17300;50.374;8.006;2023-12-04T12:05:12;6.13;;;5.57;;
30519;SDS011;17300;50.374;8.006;2023-12-04T12:07:39;6.27;;;5.60;;
30519;SDS011;17300;50.374;8.006;2023-12-04T12:10:07;6.07;;;5.20;;
30519;SDS011;17300;50.374;8.006;2023-12-04T12:12:35;5.63;;;5.10;;
30519;SDS011;17300;50.374;8.006;2023-12-04T12:15:02;6.03;;;5.43;;
30519;SDS011;17300;50.374;8.006;2023-12-04T12:17:31;6.47;;;5.30;;
30519;SDS011;17300;50.374;8.006;2023-12-04T12:19:58;5.63;;;5.13;;
30519;SDS011;17300;50.374;8.006;2023-12-04T12:22:25;6.70;;;5.63;;
30519;SDS011;17300;50.374;8.006;2023-12-04T12:24:52;6.17;;;5.23;;
30519;SDS011;17300;50.374;8.006;2023-12-04T12:27:18;6.17;;;5.53;;
30519;SDS011;17300;50.374;8.006;2023-12-04T12:29:45;6.37;;;5.47;;
30519;SDS011;17300;50.374;8.006;2023-12-04T12:32:12;5.73;;;5.10;;
30519;SDS011;17300;50.374;8.006;2023-12-04T12:34:40;5.07;;;4.47;;
30519;SDS011;17300;50.374;8.006;2023-12-04T12:37:07;5.80;;;5.17;;
30519;SDS011;17300;50.374;8.006;2023-12-04T12:39:34;5.53;;;4.80;;
30519;SDS011;17300;50.374;8.006;2023-12-04T12:42:01;5.70;;;5.10;;
30519;SDS011;17300;50.374;8.006;2023-12-04T12:44:36;5.90;;;5.27;;
30519;SDS011;17300;50.374;8.006;2023-12-04T12:47:05;6.13;;;5.53;;
30519;SDS011;17300;50.374;8.006;2023-12-04T12:49:32;6.17;;;5.17;;
30519;SDS011;17300;50.374;8.006;2023-12-04T12:55:30;5.27;;;4.60;;
30519;SDS011;17300;50.374;8.006;2023-12-04T12:58:14;5.80;;;5.27;;
30519;SDS011;17300;50.374;8.006;2023-12-04T13:01:10;5.53;;;5.03;;
30519;SDS011;17300;50.374;8.006;2023-12-04T13:04:00;5.50;;;5.00;;
30519;SDS011;17300;50.374;8.006;2023-12-04T13:06:31;5.43;;;4.80;;
30519;SDS011;17300;50.374;8.006;2023-12-04T13:30:16;6.40;;;5.10;;
30519;SDS011;17300;50.374;8.006;2023-12-04T13:32:45;5.63;;;5.03;;
30519;SDS011;17300;50.374;8.006;2023-12-04T14:02:48;5.10;;;4.60;;
30519;SDS011;17300;50.374;8.006;2023-12-04T14:15:24;8.43;;;7.53;;
30519;SDS011;17300;50.374;8.006;2023-12-04T15:04:46;7.47;;;6.17;;
30519;SDS011;17300;50.374;8.006;2023-12-04T15:07:39;6.90;;;6.20;;
30519;SDS011;17300;50.374;8.006;2023-12-04T15:30:34;9.00;;;8.03;;
30519;SDS011;17300;50.374;8.006;2023-12-04T15:33:01;9.83;;;7.50;;
30519;SDS011;17300;50.374;8.006;2023-12-04T15:35:27;8.07;;;7.27;;
30519;SDS011;17300;50.374;8.006;2023-12-04T15:40:59;7.83;;;7.03;;
30519;SDS011;17300;50.374;8.006;2023-12-04T15:43:25;8.60;;;7.50;;
30519;SDS011;17300;50.374;8.006;2023-12-04T15:45:53;7.80;;;6.80;;
30519;SDS011;17300;50.374;8.006;2023-12-04T15:48:19;8.00;;;7.30;;
30519;SDS011;17300;50.374;8.006;2023-12-04T15:50:45;8.47;;;6.57;;
30519;SDS011;17300;50.374;8.006;2023-12-04T15:53:11;7.93;;;6.87;;
30519;SDS011;17300;50.374;8.006;2023-12-04T15:55:38;7.90;;;7.10;;
30519;SDS011;17300;50.374;8.006;2023-12-04T15:58:03;7.43;;;6.63;;
30519;SDS011;17300;50.374;8.006;2023-12-04T16:00:31;7.30;;;6.60;;
30519;SDS011;17300;50.374;8.006;2023-12-04T16:02:59;8.57;;;7.23;;
30519;SDS011;17300;50.374;8.006;2023-12-04T16:05:26;7.83;;;7.07;;
30519;SDS011;17300;50.374;8.006;2023-12-04T16:07:52;9.43;;;6.87;;
30519;SDS011;17300;50.374;8.006;2023-12-04T16:10:19;7.33;;;6.63;;
30519;SDS011;17300;50.374;8.006;2023-12-04T16:12:46;8.17;;;7.37;;
30519;SDS011;17300;50.374;8.006;2023-12-04T16:15:12;8.60;;;7.80;;
30519;SDS011;17300;50.374;8.006;2023-12-04T16:17:39;7.60;;;6.90;;
30519;SDS011;17300;50.374;8.006;2023-12-04T16:20:08;7.70;;;6.90;;
30519;SDS011;17300;50.374;8.006;2023-12-04T16:22:38;7.53;;;6.83;;
30519;SDS011;17300;50.374;8.006;2023-12-04T16:25:07;7.30;;;6.60;;
30519;SDS011;17300;50.374;8.006;2023-12-04T16:27:35;8.03;;;7.23;;
30519;SDS011;17300;50.374;8.006;2023-12-04T16:30:03;9.73;;;8.73;;
30519;SDS011;17300;50.374;8.006;2023-12-04T16:32:31;9.67;;;8.67;;
30519;SDS011;17300;50.374;8.006;2023-12-04T16:34:58;10.47;;;9.37;;
30519;SDS011;17300;50.374;8.006;2023-12-04T16:37:26;9.17;;;8.27;;
30519;SDS011;17300;50.374;8.006;2023-12-04T16:39:53;9.17;;;8.27;;
30519;SDS011;17300;50.374;8.006;2023-12-04T16:42:20;10.10;;;9.00;;
30519;SDS011;17300;50.374;8.006;2023-12-04T16:44:46;9.80;;;8.17;;
30519;SDS011;17300;50.374;8.006;2023-12-04T16:47:20;9.83;;;8.50;;
30519;SDS011;17300;50.374;8.006;2023-12-04T16:50:06;9.13;;;8.23;;
30519;SDS011;17300;50.374;8.006;2023-12-04T16:52:35;8.83;;;7.57;;
30519;SDS011;17300;50.374;8.006;2023-12-04T16:55:02;7.87;;;7.07;;
30519;SDS011;17300;50.374;8.006;2023-12-04T16:57:30;7.50;;;6.77;;
30519;SDS011;17300;50.374;8.006;2023-12-04T16:59:57;9.73;;;8.73;;
30519;SDS011;17300;50.374;8.006;2023-12-04T17:02:23;10.03;;;8.30;;
30519;SDS011;17300;50.374;8.006;2023-12-04T17:04:50;9.63;;;8.57;;
30519;SDS011;17300;50.374;8.006;2023-12-04T17:07:17;9.73;;;8.00;;
30519;SDS011;17300;50.374;8.006;2023-12-04T17:09:45;8.80;;;7.77;;
30519;SDS011;17300;50.374;8.006;2023-12-04T17:12:11;8.30;;;7.40;;
30519;SDS011;17300;50.374;8.006;2023-12-04T17:14:38;8.30;;;7.40;;